Time;durP1;ratioP1;P1;durP2;ratioP2;P2;SDS_P1;SDS_P2;PMS_P1;PMS_P2;Temp;Humidity;BMP_temperature;BMP_pressure;BME280_temperature;BME280_humidity;BME280_pressure;Samples;Min_cycle;Max_cycle;Signal;HPM_P1;HPM_P2
2023/06/19 00:01:18;;;;;;;6.60;3.50;;;22.60;55.40;;;;;;7397273;19;20323;-71
2023/06/19 00:03:44;;;;;;;6.78;3.45;;;22.60;56.00;;;;;;7400589;19;19979;-70
2023/06/19 00:06:12;;;;;;;6.57;3.90;;;22.70;56.90;;;;;;7398504;19;19918;-71
2023/06/19 00:08:41;;;;;;;8.07;4.15;;;22.70;57.00;;;;;;7395895;19;19924;-71
2023/06/19 00:11:07;;;;;;;5.85;3.28;;;22.70;57.20;;;;;;7391599;19;19916;-70
2023/06/19 00:13:33;;;;;;;6.45;3.47;;;22.70;57.50;;;;;;7394521;19;19970;-71
2023/06/19 00:16:00;;;;;;;6.15;3.63;;;22.70;57.60;;;;;;7398906;19;20023;-71
2023/06/19 00:18:27;;;;;;;6.35;3.28;;;22.80;58.00;;;;;;7398386;19;19918;-71
2023/06/19 00:20:55;;;;;;;6.53;3.33;;;22.80;58.80;;;;;;7398624;19;19935;-72
2023/06/19 00:23:22;;;;;;;7.25;3.80;;;22.70;59.10;;;;;;7399880;19;19926;-71
2023/06/19 00:25:48;;;;;;;6.18;3.80;;;22.70;60.00;;;;;;7401781;19;19910;-71
2023/06/19 00:28:14;;;;;;;5.60;3.22;;;22.70;61.00;;;;;;7398952;19;19929;-72
2023/06/19 00:30:41;;;;;;;6.50;4.57;;;22.60;62.20;;;;;;7396475;19;20657;-72
2023/06/19 00:33:08;;;;;;;6.53;3.30;;;22.60;62.60;;;;;;7397450;19;19943;-72
2023/06/19 00:35:34;;;;;;;7.63;3.60;;;22.50;63.60;;;;;;7398326;19;20276;-72
2023/06/19 00:38:02;;;;;;;7.05;3.67;;;22.50;64.70;;;;;;7401021;19;19917;-72
2023/06/19 00:40:31;;;;;;;8.75;4.50;;;22.50;66.10;;;;;;7396354;19;19915;-71
2023/06/19 00:42:58;;;;;;;6.15;3.53;;;22.40;67.10;;;;;;7400658;19;19910;-71
2023/06/19 00:45:25;;;;;;;7.30;3.53;;;22.40;67.20;;;;;;7396495;19;19930;-71
2023/06/19 00:47:55;;;;;;;6.50;3.72;;;22.40;67.60;;;;;;7400834;19;19925;-71
2023/06/19 00:50:25;;;;;;;7.38;3.78;;;22.30;67.50;;;;;;7396854;19;19951;-71
2023/06/19 00:52:51;;;;;;;7.80;3.40;;;22.30;67.50;;;;;;7398034;19;20350;-71
2023/06/19 00:55:17;;;;;;;7.57;4.10;;;22.30;67.30;;;;;;7399559;19;19911;-71
2023/06/19 00:57:43;;;;;;;6.22;3.78;;;22.30;66.40;;;;;;7397990;19;19939;-70
2023/06/19 01:00:12;;;;;;;6.07;3.50;;;22.30;66.40;;;;;;7391418;19;19919;-71
2023/06/19 01:02:39;;;;;;;13.68;3.80;;;22.30;66.00;;;;;;7398611;19;19918;-71
2023/06/19 01:05:05;;;;;;;7.05;4.05;;;22.40;64.80;;;;;;7396811;19;19957;-71
2023/06/19 01:07:57;;;;;;;6.03;3.90;;;22.40;64.40;;;;;;7398447;19;19930;-72
2023/06/19 01:10:54;;;;;;;8.02;4.32;;;22.40;63.70;;;;;;7394512;19;20333;-71
2023/06/19 01:13:41;;;;;;;7.57;3.65;;;22.30;62.90;;;;;;7393566;19;20441;-71
2023/06/19 01:16:07;;;;;;;5.35;3.65;;;22.40;62.20;;;;;;7399047;19;20260;-72
2023/06/19 01:18:34;;;;;;;7.90;3.45;;;22.30;61.20;;;;;;7398369;19;19918;-71
2023/06/19 01:21:13;;;;;;;7.82;3.72;;;22.30;60.90;;;;;;7398472;19;19922;-71
2023/06/19 01:23:40;;;;;;;6.70;3.00;;;22.20;60.30;;;;;;7375921;19;19914;-71
2023/06/19 01:26:07;;;;;;;;;;;22.10;60.30;;;;;;7366484;19;19914;-72
2023/06/19 01:28:34;;;;;;;6.88;3.40;;;22.00;60.60;;;;;;7399948;19;19922;-71
2023/06/19 01:31:01;;;;;;;5.20;3.20;;;22.00;60.00;;;;;;7397685;19;19943;-71
2023/06/19 01:33:31;;;;;;;6.35;3.53;;;21.90;59.90;;;;;;7393364;19;19974;-71
2023/06/19 01:35:57;;;;;;;6.25;3.20;;;21.80;60.00;;;;;;7376719;19;19925;-73
2023/06/19 01:38:26;;;;;;;6.78;3.50;;;21.80;60.00;;;;;;7396873;19;20357;-72
2023/06/19 01:40:54;;;;;;;6.60;3.38;;;21.80;59.10;;;;;;7397233;19;19917;-71
2023/06/19 01:43:21;;;;;;;5.38;3.55;;;21.80;58.70;;;;;;7395238;19;20180;-71
2023/06/19 01:45:47;;;;;;;6.72;3.70;;;21.80;57.60;;;;;;7402612;19;19921;-71
2023/06/19 01:48:14;;;;;;;5.65;3.33;;;21.80;57.20;;;;;;7403091;19;19919;-71
2023/06/19 01:50:44;;;;;;;6.13;3.53;;;21.80;56.90;;;;;;7405490;19;19955;-73
2023/06/19 01:53:10;;;;;;;7.22;3.17;;;21.80;56.30;;;;;;7403484;19;20021;-72
2023/06/19 01:55:36;;;;;;;6.57;3.40;;;21.70;56.20;;;;;;7403964;19;19911;-72
2023/06/19 01:58:02;;;;;;;7.50;3.85;;;21.70;55.90;;;;;;7403384;19;19923;-72
2023/06/19 02:00:27;;;;;;;5.88;3.28;;;21.60;55.70;;;;;;7404309;19;19915;-73
2023/06/19 02:02:53;;;;;;;4.95;3.22;;;21.50;55.50;;;;;;7406554;19;19938;-72
2023/06/19 02:05:19;;;;;;;7.55;3.42;;;21.60;55.40;;;;;;7381978;19;20004;-71
2023/06/19 02:07:45;;;;;;;5.28;3.17;;;21.50;55.60;;;;;;7398690;19;19918;-72
2023/06/19 02:10:11;;;;;;;6.72;3.58;;;21.50;55.50;;;;;;7401493;19;21586;-73
2023/06/19 02:12:36;;;;;;;7.18;3.33;;;21.50;55.40;;;;;;7402097;19;19923;-72
2023/06/19 02:15:03;;;;;;;5.80;3.97;;;21.50;55.20;;;;;;7401893;19;19970;-73
2023/06/19 02:17:29;;;;;;;6.53;3.67;;;21.50;55.30;;;;;;7403681;19;19915;-73
2023/06/19 02:19:56;;;;;;;;;;;21.40;55.20;;;;;;7406356;19;19942;-71
2023/06/19 02:22:23;;;;;;;7.70;3.45;;;21.50;55.30;;;;;;7401049;19;20052;-73
2023/06/19 02:24:49;;;;;;;5.55;3.30;;;21.40;55.40;;;;;;7399510;19;19915;-73
2023/06/19 02:27:15;;;;;;;5.68;3.38;;;21.40;55.60;;;;;;7400375;19;19910;-73
2023/06/19 02:29:41;;;;;;;6.13;3.33;;;21.40;55.60;;;;;;7404525;19;20008;-72
2023/06/19 02:32:07;;;;;;;6.82;3.40;;;21.40;55.70;;;;;;7400228;19;20263;-73
2023/06/19 02:34:33;;;;;;;6.13;3.40;;;21.50;56.40;;;;;;7402566;19;19911;-72
2023/06/19 02:36:59;;;;;;;8.10;3.65;;;21.50;57.80;;;;;;7401576;19;19918;-71
2023/06/19 02:39:25;;;;;;;6.70;3.35;;;21.50;58.80;;;;;;7402623;19;19919;-73
2023/06/19 02:41:50;;;;;;;6.25;3.80;;;21.50;59.50;;;;;;7403019;19;20286;-72
2023/06/19 02:44:16;;;;;;;7.45;3.90;;;21.50;60.10;;;;;;7401110;19;19917;-70
2023/06/19 02:46:42;;;;;;;6.93;3.92;;;21.50;60.70;;;;;;7378487;19;19956;-70
2023/06/19 02:49:08;;;;;;;6.50;3.38;;;21.50;61.60;;;;;;7396655;19;19918;-71
2023/06/19 02:51:33;;;;;;;5.78;3.42;;;21.40;62.30;;;;;;7399511;19;19922;-71
2023/06/19 02:53:59;;;;;;;7.10;3.28;;;21.40;63.70;;;;;;7402334;19;19918;-71
2023/06/19 02:56:27;;;;;;;7.80;3.97;;;21.40;64.30;;;;;;7396320;19;19949;-71
2023/06/19 02:58:53;;;;;;;7.93;3.90;;;21.40;64.60;;;;;;7400906;19;19914;-71
2023/06/19 03:01:19;;;;;;;5.90;3.42;;;21.50;65.00;;;;;;7397279;19;19930;-71
2023/06/19 03:03:46;;;;;;;8.13;3.60;;;21.40;66.00;;;;;;7398942;19;19982;-71
2023/06/19 03:06:13;;;;;;;6.97;3.97;;;21.40;66.30;;;;;;7400564;19;19982;-71
2023/06/19 03:08:39;;;;;;;7.07;3.92;;;21.50;66.80;;;;;;7398753;19;20394;-71
2023/06/19 03:11:06;;;;;;;7.30;3.85;;;21.40;67.20;;;;;;7398105;19;20342;-71
2023/06/19 03:14:07;;;;;;;5.70;3.20;;;21.40;68.20;;;;;;7404087;19;19939;-70
2023/06/19 03:16:33;;;;;;;7.28;3.63;;;21.40;69.80;;;;;;7394433;19;19990;-71
2023/06/19 03:19:00;;;;;;;7.75;4.05;;;21.40;71.40;;;;;;7399132;19;19914;-70
2023/06/19 03:21:26;;;;;;;5.63;3.50;;;21.30;72.90;;;;;;7398586;19;19919;-70
2023/06/19 03:23:52;;;;;;;6.53;3.88;;;21.30;74.10;;;;;;7402162;19;19958;-71
2023/06/19 03:26:21;;;;;;;5.55;3.90;;;21.30;74.80;;;;;;7400753;19;20593;-69
2023/06/19 03:28:47;;;;;;;7.40;4.25;;;21.30;76.50;;;;;;7371185;19;19915;-70
2023/06/19 03:31:15;;;;;;;8.10;4.22;;;21.20;77.10;;;;;;7366811;19;19932;-70
2023/06/19 03:33:41;;;;;;;9.27;4.30;;;21.20;80.70;;;;;;7401125;19;19914;-70
2023/06/19 03:36:07;;;;;;;10.20;4.93;;;21.20;83.00;;;;;;7400732;19;19948;-71
2023/06/19 03:38:33;;;;;;;9.88;4.85;;;21.20;83.80;;;;;;7401152;19;19925;-71
2023/06/19 03:40:59;;;;;;;9.70;3.92;;;21.10;84.70;;;;;;7399184;19;19922;-70
2023/06/19 03:43:24;;;;;;;11.75;5.07;;;21.10;86.00;;;;;;7400500;19;19931;-71
2023/06/19 03:45:50;;;;;;;8.05;4.45;;;21.10;88.20;;;;;;7400240;19;19928;-71
2023/06/19 03:48:17;;;;;;;9.35;4.30;;;21.10;89.00;;;;;;7398675;19;19922;-70
2023/06/19 03:50:43;;;;;;;9.60;4.85;;;21.20;90.10;;;;;;7401053;19;20371;-70
2023/06/19 03:53:09;;;;;;;7.68;4.55;;;21.10;90.90;;;;;;7398193;19;19922;-71
2023/06/19 03:55:35;;;;;;;12.52;4.88;;;21.10;91.60;;;;;;7400052;19;19910;-71
2023/06/19 03:58:00;;;;;;;7.47;5.03;;;21.10;91.80;;;;;;7399469;19;19951;-70
2023/06/19 04:00:26;;;;;;;9.80;4.90;;;21.10;93.00;;;;;;7400348;19;20635;-71
2023/06/19 04:02:56;;;;;;;11.60;4.68;;;21.10;93.40;;;;;;7399593;19;19944;-72
2023/06/19 04:05:22;;;;;;;11.13;4.80;;;21.10;93.60;;;;;;7399812;19;19938;-71
2023/06/19 04:07:48;;;;;;;10.00;6.13;;;21.10;93.60;;;;;;7397897;19;19910;-71
2023/06/19 04:10:14;;;;;;;8.93;4.97;;;21.10;93.60;;;;;;7396936;19;19919;-70
2023/06/19 04:12:40;;;;;;;9.75;5.22;;;21.10;93.70;;;;;;7398325;19;20030;-71
2023/06/19 04:15:07;;;;;;;10.27;5.20;;;21.10;93.70;;;;;;7398542;19;19961;-71
2023/06/19 04:17:33;;;;;;;8.63;4.93;;;21.10;93.50;;;;;;7399209;19;19924;-71
2023/06/19 04:19:58;;;;;;;8.93;4.65;;;21.10;93.50;;;;;;7399574;19;19978;-71
2023/06/19 04:22:24;;;;;;;7.80;4.82;;;21.10;93.40;;;;;;7367580;19;19919;-71
2023/06/19 04:24:50;;;;;;;9.20;4.85;;;21.00;93.30;;;;;;7400535;19;19918;-71
2023/06/19 04:27:16;;;;;;;9.07;5.18;;;21.00;93.00;;;;;;7399967;19;19925;-71
2023/06/19 04:29:41;;;;;;;8.30;4.55;;;21.00;92.90;;;;;;7396949;19;19928;-71
2023/06/19 04:32:11;;;;;;;11.35;4.82;;;21.00;92.50;;;;;;7400308;19;19925;-73
2023/06/19 04:34:41;;;;;;;8.05;4.78;;;21.00;91.70;;;;;;7400106;19;19914;-71
2023/06/19 04:37:07;;;;;;;8.80;4.70;;;21.00;91.10;;;;;;7393342;19;19960;-73
2023/06/19 04:39:33;;;;;;;8.15;4.38;;;21.10;90.60;;;;;;7375989;19;19919;-72
2023/06/19 04:42:00;;;;;;;8.35;4.75;;;21.10;90.30;;;;;;7399848;19;20255;-71
2023/06/19 04:44:26;;;;;;;7.97;5.00;;;21.10;90.60;;;;;;7396455;19;19943;-71
2023/06/19 04:47:00;;;;;;;9.32;4.90;;;21.20;92.10;;;;;;7396948;19;19919;-69
2023/06/19 04:49:29;;;;;;;7.68;4.85;;;21.30;92.20;;;;;;7395568;19;19935;-71
2023/06/19 04:51:58;;;;;;;9.40;4.90;;;21.30;92.70;;;;;;7396930;19;19911;-70
2023/06/19 04:54:25;;;;;;;9.23;4.95;;;21.30;92.70;;;;;;7398194;19;19959;-70
2023/06/19 04:56:50;;;;;;;10.77;5.03;;;21.40;92.80;;;;;;7365817;19;19907;-71
2023/06/19 04:59:18;;;;;;;9.20;5.45;;;21.40;93.30;;;;;;7396387;19;19938;-72
2023/06/19 05:01:45;;;;;;;11.73;4.80;;;21.50;93.80;;;;;;7396266;19;19918;-71
2023/06/19 05:04:11;;;;;;;9.40;5.25;;;21.50;93.80;;;;;;7396930;19;19926;-72
2023/06/19 05:06:37;;;;;;;12.38;5.50;;;21.50;94.00;;;;;;7400310;19;19922;-71
2023/06/19 05:09:03;;;;;;;11.02;5.57;;;21.60;94.10;;;;;;7397291;19;19979;-71
2023/06/19 05:11:29;;;;;;;18.17;5.30;;;21.60;93.60;;;;;;7398397;19;19926;-71
2023/06/19 05:13:54;;;;;;;10.65;5.20;;;21.60;93.90;;;;;;7398892;19;19927;-72
2023/06/19 05:16:21;;;;;;;9.57;5.85;;;21.60;94.20;;;;;;7397808;19;20528;-70
2023/06/19 05:18:46;;;;;;;12.25;5.30;;;21.60;94.90;;;;;;7399566;19;19918;-71
2023/06/19 05:21:13;;;;;;;9.82;5.63;;;21.60;95.40;;;;;;7404196;19;20282;-71
2023/06/19 05:23:39;;;;;;;11.23;4.75;;;21.60;95.60;;;;;;7405037;19;19925;-71
2023/06/19 05:26:05;;;;;;;10.43;5.45;;;21.60;96.10;;;;;;7402415;19;19918;-72
2023/06/19 05:28:31;;;;;;;11.50;5.13;;;21.60;96.20;;;;;;7402016;19;19914;-72
2023/06/19 05:30:57;;;;;;;9.57;5.13;;;21.60;96.70;;;;;;7404044;19;19911;-71
2023/06/19 05:33:23;;;;;;;11.25;5.50;;;21.60;97.20;;;;;;7401082;19;19926;-72
2023/06/19 05:35:52;;;;;;;10.75;5.45;;;21.60;97.60;;;;;;7402593;19;19987;-71
2023/06/19 05:38:19;;;;;;;13.82;5.80;;;21.70;97.90;;;;;;7402146;19;19915;-71
2023/06/19 05:40:45;;;;;;;11.55;5.05;;;21.70;98.10;;;;;;7403103;19;19922;-71
2023/06/19 05:43:10;;;;;;;11.73;5.70;;;21.80;98.20;;;;;;7400713;19;19910;-71
2023/06/19 05:45:36;;;;;;;8.45;5.00;;;21.80;98.40;;;;;;7404640;19;19911;-71
2023/06/19 05:48:02;;;;;;;11.13;6.53;;;21.90;98.60;;;;;;7397806;19;20650;-71
2023/06/19 05:50:28;;;;;;;14.00;5.65;;;21.90;98.60;;;;;;7403863;19;19926;-71
2023/06/19 05:52:53;;;;;;;13.82;6.15;;;22.00;98.60;;;;;;7401616;19;19919;-71
2023/06/19 05:55:19;;;;;;;10.85;5.43;;;22.00;98.50;;;;;;7402959;19;19915;-71
2023/06/19 05:57:45;;;;;;;12.68;5.82;;;22.10;98.30;;;;;;7401693;19;19919;-71
2023/06/19 06:00:14;;;;;;;15.20;5.90;;;22.20;98.30;;;;;;7402566;19;20353;-72
2023/06/19 06:02:40;;;;;;;10.68;5.80;;;22.20;98.00;;;;;;7403025;19;19929;-71
2023/06/19 06:05:08;;;;;;;11.60;5.47;;;22.30;97.70;;;;;;7401869;19;19929;-71
2023/06/19 06:07:34;;;;;;;14.70;6.53;;;22.50;97.20;;;;;;7402485;19;19926;-72
2023/06/19 06:10:00;;;;;;;12.57;6.13;;;22.50;96.80;;;;;;7403901;19;19921;-71
2023/06/19 06:12:26;;;;;;;12.25;5.63;;;22.60;96.50;;;;;;7400210;19;19918;-72
2023/06/19 06:14:53;;;;;;;11.43;5.63;;;22.60;96.10;;;;;;7403872;19;20328;-71
2023/06/19 06:17:19;;;;;;;17.75;10.55;;;22.70;95.50;;;;;;7402312;19;19939;-71
2023/06/19 06:19:44;;;;;;;12.88;5.53;;;22.70;94.90;;;;;;7402274;19;19922;-71
2023/06/19 06:22:10;;;;;;;10.57;5.55;;;22.80;94.40;;;;;;7401113;19;20214;-71
2023/06/19 06:24:36;;;;;;;12.10;6.15;;;22.80;93.90;;;;;;7404509;19;20354;-71
2023/06/19 06:27:02;;;;;;;14.77;5.70;;;22.90;93.50;;;;;;7403314;19;19915;-71
2023/06/19 06:29:28;;;;;;;;;;;22.90;92.80;;;;;;7400948;19;19914;-72
2023/06/19 06:32:04;;;;;;;13.57;5.03;;;23.00;92.10;;;;;;7376928;19;19918;-71
2023/06/19 06:34:30;;;;;;;15.30;5.15;;;23.00;90.90;;;;;;7397638;19;19918;-71
2023/06/19 06:36:56;;;;;;;11.45;5.65;;;23.10;90.20;;;;;;7402117;19;20367;-70
2023/06/19 06:39:22;;;;;;;11.23;5.47;;;23.20;89.60;;;;;;7402611;19;19935;-72
2023/06/19 06:41:48;;;;;;;12.15;5.93;;;23.30;87.60;;;;;;7398519;19;20264;-72
2023/06/19 06:44:13;;;;;;;9.98;5.25;;;23.30;86.40;;;;;;7401667;19;19914;-73
2023/06/19 06:46:39;;;;;;;11.13;4.80;;;23.50;85.00;;;;;;7402401;19;19919;-73
2023/06/19 06:49:05;;;;;;;8.63;5.15;;;23.60;83.50;;;;;;7399489;19;19923;-72
2023/06/19 06:51:31;;;;;;;15.93;9.45;;;23.70;81.70;;;;;;7401738;19;19918;-73
2023/06/19 06:53:56;;;;;;;11.02;4.82;;;23.80;81.00;;;;;;7402823;19;20354;-72
2023/06/19 06:56:22;;;;;;;10.20;4.65;;;23.90;80.20;;;;;;7402819;19;19990;-72
2023/06/19 06:58:48;;;;;;;10.23;4.88;;;24.00;79.10;;;;;;7401357;19;19927;-72
2023/06/19 07:01:14;;;;;;;11.57;4.80;;;24.20;78.00;;;;;;7400778;19;19918;-72
2023/06/19 07:03:39;;;;;;;9.88;4.97;;;24.50;76.80;;;;;;7401019;19;19943;-71
2023/06/19 07:06:05;;;;;;;9.50;4.80;;;24.80;75.10;;;;;;7399356;19;19914;-71
2023/06/19 07:08:31;;;;;;;12.95;4.75;;;25.00;73.50;;;;;;7401144;19;20331;-71
2023/06/19 07:10:57;;;;;;;11.10;4.53;;;24.90;73.60;;;;;;7402428;19;19915;-70
2023/06/19 07:13:23;;;;;;;12.10;4.85;;;24.90;72.70;;;;;;7400461;19;19942;-71
2023/06/19 07:15:49;;;;;;;8.13;4.68;;;24.90;72.20;;;;;;7401554;19;20225;-71
2023/06/19 07:18:16;;;;;;;7.57;4.68;;;24.90;71.70;;;;;;7394298;19;19915;-71
2023/06/19 07:20:41;;;;;;;9.25;4.60;;;25.00;70.90;;;;;;7401723;19;19911;-71
2023/06/19 07:23:09;;;;;;;11.20;4.90;;;25.10;69.90;;;;;;7398600;19;19932;-71
2023/06/19 07:25:34;;;;;;;9.73;4.90;;;25.20;68.80;;;;;;7396422;19;19939;-72
2023/06/19 07:28:01;;;;;;;8.32;3.90;;;25.50;68.00;;;;;;7392006;19;19918;-72
2023/06/19 07:30:29;;;;;;;11.38;4.50;;;25.60;66.40;;;;;;7344912;19;20362;-72
2023/06/19 07:32:54;;;;;;;6.90;4.05;;;25.70;65.10;;;;;;7348709;19;19932;-72
2023/06/19 07:35:20;;;;;;;9.07;4.07;;;25.60;64.40;;;;;;7328156;19;19915;-71
2023/06/19 07:37:46;;;;;;;8.93;4.43;;;25.60;63.70;;;;;;7330248;19;19953;-72
2023/06/19 07:40:12;;;;;;;9.18;4.10;;;25.70;63.40;;;;;;7371462;19;20338;-71
2023/06/19 07:42:38;;;;;;;9.43;3.95;;;25.70;63.10;;;;;;7347573;19;19907;-71
2023/06/19 07:45:04;;;;;;;11.13;4.70;;;25.70;61.90;;;;;;7354029;19;19999;-73
2023/06/19 07:47:30;;;;;;;9.65;4.20;;;25.70;61.80;;;;;;7385148;19;19932;-72
2023/06/19 07:49:56;;;;;;;7.85;3.75;;;25.70;61.30;;;;;;7399060;19;19926;-72
2023/06/19 07:52:22;;;;;;;8.60;4.53;;;25.60;60.50;;;;;;7350547;19;19953;-71
2023/06/19 07:54:55;;;;;;;9.05;4.65;;;25.60;60.30;;;;;;7331038;19;20000;-72
2023/06/19 07:57:23;;;;;;;6.85;4.45;;;25.50;60.00;;;;;;7348342;19;19969;-72
2023/06/19 07:59:50;;;;;;;8.43;4.07;;;25.30;58.50;;;;;;7335287;19;19918;-71
2023/06/19 08:02:16;;;;;;;9.00;4.63;;;25.20;58.60;;;;;;7352444;19;21108;-73
2023/06/19 08:04:42;;;;;;;7.22;3.75;;;25.20;58.20;;;;;;7366846;19;19918;-72
2023/06/19 08:07:08;;;;;;;9.00;4.80;;;25.20;57.60;;;;;;7338187;19;19914;-71
2023/06/19 08:09:34;;;;;;;8.65;4.28;;;25.10;60.50;;;;;;7345394;19;19931;-72
2023/06/19 08:12:01;;;;;;;8.68;4.93;;;25.10;61.60;;;;;;7358711;19;19930;-73
2023/06/19 08:14:26;;;;;;;8.68;4.88;;;25.00;63.20;;;;;;7385984;19;20254;-71
2023/06/19 08:16:52;;;;;;;8.65;4.72;;;25.00;63.40;;;;;;7360639;19;19915;-71
2023/06/19 08:19:18;;;;;;;11.68;4.75;;;25.00;63.70;;;;;;7348071;19;19920;-72
2023/06/19 08:21:44;;;;;;;9.93;4.40;;;25.00;63.90;;;;;;7316417;19;21029;-71
2023/06/19 08:24:10;;;;;;;10.23;4.82;;;25.10;64.10;;;;;;7349166;19;19935;-72
2023/06/19 08:26:35;;;;;;;9.48;4.97;;;25.10;64.60;;;;;;7340998;19;19918;-72
2023/06/19 08:29:01;;;;;;;11.00;4.60;;;25.00;65.00;;;;;;7351909;19;19933;-73
2023/06/19 08:31:28;;;;;;;13.57;4.88;;;25.00;66.20;;;;;;7367354;19;19922;-73
2023/06/19 08:33:55;;;;;;;11.52;5.53;;;24.40;71.30;;;;;;7361242;19;19922;-71
2023/06/19 08:36:21;;;;;;;12.77;5.22;;;23.50;77.00;;;;;;7340534;19;19910;-72
2023/06/19 08:38:49;;;;;;;11.73;5.43;;;23.00;81.40;;;;;;7380615;19;19911;-72
2023/06/19 08:41:19;;;;;;;11.68;5.38;;;22.70;84.70;;;;;;7352807;19;19911;-72
2023/06/19 08:43:45;;;;;;;11.77;5.07;;;22.40;90.00;;;;;;7365271;19;19913;-73
2023/06/19 08:46:12;;;;;;;;;;;22.30;91.40;;;;;;7336674;19;27202;-72
2023/06/19 08:48:38;;;;;;;11.73;5.00;;;22.10;92.00;;;;;;7350216;19;20729;-72
2023/06/19 08:51:05;;;;;;;10.10;5.55;;;21.50;95.50;;;;;;7348564;19;19926;-73
2023/06/19 08:53:35;;;;;;;13.52;5.65;;;21.40;98.20;;;;;;7366414;19;19939;-73
2023/06/19 08:56:03;;;;;;;10.35;5.60;;;21.30;99.90;;;;;;7346722;19;20571;-73
2023/06/19 08:58:28;;;;;;;14.40;6.55;;;20.90;99.90;;;;;;7364887;19;19957;-74
2023/06/19 09:00:54;;;;;;;11.32;5.18;;;20.60;98.90;;;;;;7346189;19;19963;-73
2023/06/19 09:03:21;;;;;;;8.73;5.22;;;20.50;99.90;;;;;;7349962;19;20343;-72
2023/06/19 09:05:50;;;;;;;14.75;6.55;;;20.50;99.90;;;;;;7356899;19;20282;-72
2023/06/19 09:08:17;;;;;;;11.88;5.93;;;20.50;99.90;;;;;;7341432;19;19922;-72
2023/06/19 09:10:53;;;;;;;12.77;5.15;;;20.50;99.90;;;;;;7347894;19;20526;-71
2023/06/19 09:13:19;;;;;;;11.93;5.68;;;20.50;99.90;;;;;;7340414;19;19915;-72
2023/06/19 09:15:45;;;;;;;9.43;5.93;;;20.50;99.90;;;;;;7388852;19;19956;-72
2023/06/19 09:18:12;;;;;;;11.90;5.47;;;20.50;99.90;;;;;;7401115;19;19958;-73
2023/06/19 09:20:44;;;;;;;13.20;4.40;;;20.50;99.90;;;;;;7402024;19;19968;-72
2023/06/19 09:23:13;;;;;;;10.80;5.32;;;20.40;99.90;;;;;;7405382;19;19919;-73
2023/06/19 09:25:50;;;;;;;8.95;4.90;;;20.50;99.90;;;;;;7405955;19;19939;-73
2023/06/19 09:28:27;;;;;;;12.13;5.07;;;20.50;99.90;;;;;;7398807;19;19907;-72
2023/06/19 09:30:53;;;;;;;8.93;4.95;;;20.70;99.90;;;;;;7378122;19;19926;-72
2023/06/19 09:33:20;;;;;;;10.32;6.00;;;20.70;99.90;;;;;;7343652;19;20244;-72
2023/06/19 09:35:46;;;;;;;10.25;5.38;;;20.80;99.90;;;;;;7365395;19;19918;-72
2023/06/19 09:38:13;;;;;;;10.75;4.88;;;20.90;99.90;;;;;;7356353;19;19923;-72
2023/06/19 09:40:39;;;;;;;10.90;5.65;;;21.10;99.90;;;;;;7358800;19;19922;-72
2023/06/19 09:43:07;;;;;;;11.07;6.13;;;21.30;99.90;;;;;;7341448;19;20419;-71
2023/06/19 09:45:34;;;;;;;9.68;5.53;;;21.80;98.60;;;;;;7345353;19;21298;-72
2023/06/19 09:47:59;;;;;;;;;;;21.90;99.10;;;;;;7337898;19;19929;-72
2023/06/19 09:50:27;;;;;;;10.52;5.20;;;21.90;97.00;;;;;;7361425;19;19910;-72
2023/06/19 09:52:55;;;;;;;12.85;5.70;;;22.20;94.60;;;;;;7347646;19;21947;-71
2023/06/19 09:55:24;;;;;;;10.25;4.78;;;22.30;97.10;;;;;;7360864;19;19966;-72
2023/06/19 09:57:51;;;;;;;9.77;5.15;;;22.30;94.60;;;;;;7344459;19;19927;-72
2023/06/19 10:00:21;;;;;;;9.32;4.60;;;22.40;93.00;;;;;;7356167;19;19918;-73
2023/06/19 10:02:49;;;;;;;10.55;4.85;;;22.50;91.70;;;;;;7376395;19;19951;-72
2023/06/19 10:05:15;;;;;;;8.73;4.40;;;22.70;90.50;;;;;;7354595;19;20239;-72
2023/06/19 10:07:46;;;;;;;7.53;4.18;;;23.10;91.40;;;;;;7347988;19;19926;-71
2023/06/19 10:10:23;;;;;;;9.13;4.45;;;23.30;88.50;;;;;;7349638;19;19927;-72
2023/06/19 10:12:49;;;;;;;8.25;4.47;;;23.30;88.70;;;;;;7349734;19;21884;-71
2023/06/19 10:15:20;;;;;;;9.48;4.90;;;23.80;82.90;;;;;;7333853;19;19939;-73
2023/06/19 10:17:52;;;;;;;7.35;4.53;;;24.30;83.20;;;;;;7335729;19;19914;-71
2023/06/19 10:20:35;;;;;;;9.07;4.55;;;25.00;80.70;;;;;;7350306;19;20406;-71
2023/06/19 10:23:18;;;;;;;10.85;6.28;;;25.60;78.40;;;;;;7360642;19;19944;-72
2023/06/19 10:25:46;;;;;;;7.43;4.65;;;27.30;66.20;;;;;;7352017;19;20674;-71
2023/06/19 10:28:27;;;;;;;8.30;6.20;;;28.80;60.00;;;;;;7340724;19;19916;-72
2023/06/19 10:31:06;;;;;;;7.55;5.55;;;30.30;53.20;;;;;;7347455;19;20080;-72
2023/06/19 10:33:36;;;;;;;10.85;6.28;;;31.10;50.30;;;;;;7346563;19;19914;-72
2023/06/19 10:36:21;;;;;;;10.10;6.20;;;30.70;49.80;;;;;;7350713;19;20425;-72
2023/06/19 10:38:47;;;;;;;8.82;5.68;;;31.40;48.20;;;;;;7344654;19;19919;-71
2023/06/19 10:41:20;;;;;;;;;;;32.00;46.60;;;;;;7342837;19;20234;-72
2023/06/19 10:44:05;;;;;;;9.93;6.50;;;32.40;45.20;;;;;;7282138;19;19914;-72
2023/06/19 10:46:33;;;;;;;7.22;5.60;;;32.60;43.40;;;;;;7350808;19;20461;-73
2023/06/19 10:49:01;;;;;;;9.55;5.53;;;32.40;41.90;;;;;;7361384;19;19922;-72
2023/06/19 10:51:35;;;;;;;8.45;5.93;;;32.30;42.80;;;;;;7340587;19;19931;-72
2023/06/19 10:54:01;;;;;;;11.95;6.50;;;32.70;41.20;;;;;;7352634;19;19918;-72
2023/06/19 10:56:27;;;;;;;7.00;5.72;;;32.70;41.50;;;;;;7353085;19;22276;-72
2023/06/19 10:59:08;;;;;;;10.00;5.50;;;32.90;41.00;;;;;;7360659;19;20548;-72
2023/06/19 11:01:42;;;;;;;10.38;5.63;;;32.60;40.20;;;;;;7365958;19;19938;-74
2023/06/19 11:04:10;;;;;;;8.45;6.65;;;31.70;40.70;;;;;;7354855;19;19925;-74
2023/06/19 11:06:37;;;;;;;8.63;5.15;;;31.00;40.70;;;;;;7349052;19;19918;-73
2023/06/19 11:09:05;;;;;;;7.10;5.22;;;30.70;41.80;;;;;;7348004;19;19974;-75
2023/06/19 11:11:39;;;;;;;8.57;4.20;;;30.40;42.00;;;;;;7340265;19;20282;-74
2023/06/19 11:14:06;;;;;;;10.30;5.85;;;30.30;42.80;;;;;;7337386;19;19927;-74
2023/06/19 11:16:33;;;;;;;8.52;5.35;;;30.40;42.90;;;;;;7378290;19;19923;-73
2023/06/19 11:19:00;;;;;;;12.02;5.07;;;30.40;43.40;;;;;;7339325;19;19931;-73
2023/06/19 11:21:34;;;;;;;7.22;4.70;;;30.60;42.70;;;;;;7340159;19;19932;-72
2023/06/19 11:24:01;;;;;;;13.63;4.93;;;30.90;42.30;;;;;;7343622;19;19938;-74
2023/06/19 11:26:27;;;;;;;12.65;5.68;;;30.70;41.50;;;;;;7348612;19;19925;-73
2023/06/19 11:28:54;;;;;;;7.68;5.18;;;31.00;41.70;;;;;;7364527;19;19919;-72
2023/06/19 11:31:26;;;;;;;7.35;3.80;;;31.00;40.70;;;;;;7327414;19;20822;-74
2023/06/19 11:33:58;;;;;;;;;;;31.00;39.60;;;;;;7364698;19;19918;-73
2023/06/19 11:36:24;;;;;;;7.22;5.30;;;31.40;39.30;;;;;;7376448;19;19935;-74
2023/06/19 11:39:01;;;;;;;9.65;5.18;;;31.40;38.50;;;;;;7369220;19;20354;-74
2023/06/19 11:41:28;;;;;;;9.07;5.25;;;31.50;38.60;;;;;;7388820;19;19915;-74
2023/06/19 11:44:05;;;;;;;8.20;5.60;;;31.40;38.20;;;;;;7367184;19;19918;-74
2023/06/19 11:46:32;;;;;;;7.80;4.78;;;31.20;37.80;;;;;;7390098;19;19915;-73
2023/06/19 11:49:12;;;;;;;8.82;4.88;;;31.10;37.00;;;;;;7381526;19;19922;-73
2023/06/19 11:51:38;;;;;;;9.02;5.68;;;31.30;37.40;;;;;;7398085;19;20592;-73
2023/06/19 11:54:09;;;;;;;7.03;5.18;;;31.50;35.90;;;;;;7430176;19;20367;-73
2023/06/19 11:56:36;;;;;;;9.55;5.15;;;31.50;34.70;;;;;;7374807;19;19921;-75
2023/06/19 11:59:05;;;;;;;7.03;4.93;;;31.70;34.20;;;;;;7390124;19;19924;-73
2023/06/19 12:01:32;;;;;;;8.57;5.35;;;31.40;33.60;;;;;;7380433;19;19914;-74
2023/06/19 12:03:59;;;;;;;7.70;5.07;;;31.40;33.60;;;;;;7412216;19;19996;-74
2023/06/19 12:06:25;;;;;;;7.32;5.00;;;31.40;33.70;;;;;;7432587;19;20358;-73
2023/06/19 12:08:50;;;;;;;;;;;31.60;33.60;;;;;;7394758;19;19914;-73
2023/06/19 12:11:18;;;;;;;10.13;4.80;;;31.90;33.60;;;;;;7376086;19;20454;-74
2023/06/19 12:13:44;;;;;;;9.60;5.80;;;32.20;33.40;;;;;;7384281;19;19926;-73
2023/06/19 12:16:12;;;;;;;;;;;32.20;33.50;;;;;;7383040;19;19922;-73
2023/06/19 12:18:38;;;;;;;9.63;6.03;;;32.60;33.50;;;;;;7370256;19;19922;-73
2023/06/19 12:21:04;;;;;;;;;;;32.90;32.90;;;;;;7377120;19;20282;-74
2023/06/19 12:23:30;;;;;;;8.65;5.47;;;33.00;32.80;;;;;;7396475;19;20031;-74
2023/06/19 12:25:56;;;;;;;9.68;5.38;;;32.80;33.10;;;;;;7381568;19;20262;-73
2023/06/19 12:28:22;;;;;;;7.97;5.78;;;33.10;32.80;;;;;;7380586;19;20783;-74
2023/06/19 12:30:51;;;;;;;8.75;5.55;;;33.00;33.30;;;;;;7396800;19;19914;-73
2023/06/19 12:33:17;;;;;;;10.10;5.78;;;32.90;32.40;;;;;;7374328;19;19922;-73
2023/06/19 12:35:44;;;;;;;9.52;5.97;;;33.30;32.40;;;;;;7373660;19;19915;-73
2023/06/19 12:38:10;;;;;;;10.05;5.72;;;33.50;31.70;;;;;;7402927;19;19927;-74
2023/06/19 12:40:37;;;;;;;9.52;5.20;;;33.00;32.00;;;;;;7430603;19;19982;-73
2023/06/19 12:43:03;;;;;;;10.35;5.55;;;33.00;32.60;;;;;;7426922;19;19919;-73
2023/06/19 12:45:29;;;;;;;10.75;5.97;;;33.50;33.20;;;;;;7433559;19;19995;-72
2023/06/19 12:47:55;;;;;;;10.00;7.35;;;34.10;32.90;;;;;;7421824;19;20358;-74